createdAt,value
2018-09-17T00:02:13.617Z,20.70
2018-09-17T00:04:41.584Z,16.93
2018-09-17T00:07:09.477Z,13.67
2018-09-17T00:09:37.458Z,12.87
2018-09-17T00:12:05.462Z,13.50
2018-09-17T00:14:33.387Z,16.40
2018-09-17T00:17:01.254Z,16.97
2018-09-17T00:19:29.137Z,14.80
2018-09-17T00:21:57.063Z,13.07
2018-09-17T00:24:24.998Z,12.90
2018-09-17T00:26:53.972Z,13.90
2018-09-17T00:29:21.769Z,16.23
2018-09-17T00:31:49.664Z,13.93
2018-09-17T00:34:17.562Z,16.63
2018-09-17T00:36:45.486Z,15.50
2018-09-17T00:39:13.557Z,14.00
2018-09-17T00:41:41.622Z,13.60
2018-09-17T00:44:09.538Z,15.90
2018-09-17T00:46:37.489Z,16.37
2018-09-17T00:49:05.364Z,15.20
2018-09-17T00:51:33.329Z,15.63
2018-09-17T00:54:01.270Z,16.00
2018-09-17T00:56:29.144Z,19.00
2018-09-17T00:58:57.037Z,16.40
2018-09-17T01:01:24.945Z,15.13
2018-09-17T01:03:52.861Z,16.57
2018-09-17T01:06:20.729Z,17.63
2018-09-17T01:08:49.649Z,17.50
2018-09-17T01:11:17.571Z,17.10
2018-09-17T01:13:45.450Z,17.33
2018-09-17T01:16:13.539Z,16.97
2018-09-17T01:18:41.497Z,17.33
2018-09-17T01:21:09.379Z,16.80
2018-09-17T01:23:37.362Z,16.37
2018-09-17T01:26:05.271Z,16.80
2018-09-17T01:28:33.166Z,17.47
2018-09-17T01:31:01.033Z,20.73
2018-09-17T01:33:28.950Z,17.00
2018-09-17T01:35:56.858Z,16.80
2018-09-17T01:38:24.799Z,16.67
2018-09-17T01:40:52.685Z,16.87
2018-09-17T01:43:20.588Z,16.43
2018-09-17T01:45:49.474Z,18.03
2018-09-17T01:48:17.369Z,17.83
2018-09-17T01:50:45.277Z,17.23
2018-09-17T01:53:13.193Z,17.87
2018-09-17T01:55:41.153Z,15.47
2018-09-17T01:58:09.118Z,23.37
2018-09-17T02:00:37.066Z,17.07
2018-09-17T02:03:04.904Z,15.53
2018-09-17T02:05:32.848Z,17.03
2018-09-17T02:08:00.840Z,15.77
2018-09-17T02:10:28.729Z,15.70
2018-09-17T02:12:56.644Z,15.63
2018-09-17T02:15:24.649Z,18.20
2018-09-17T02:17:52.553Z,18.73
2018-09-17T02:20:20.447Z,17.43
2018-09-17T02:22:48.365Z,18.00
2018-09-17T02:25:16.281Z,18.93
2018-09-17T02:27:44.232Z,23.00
2018-09-17T02:30:12.080Z,22.03
2018-09-17T02:32:39.983Z,21.80
2018-09-17T02:35:07.962Z,17.73
2018-09-17T02:37:35.910Z,16.70
2018-09-17T02:40:03.879Z,22.27
2018-09-17T02:42:31.854Z,17.57
2018-09-17T02:44:59.826Z,19.50
2018-09-17T02:47:27.811Z,23.53
2018-09-17T02:49:55.765Z,19.67
2018-09-17T02:52:23.706Z,18.80
2018-09-17T02:54:52.545Z,18.50
2018-09-17T02:57:20.484Z,19.03
2018-09-17T02:59:48.412Z,20.30
2018-09-17T03:02:16.318Z,19.93
2018-09-17T03:04:44.281Z,21.70
2018-09-17T03:07:12.095Z,20.33
2018-09-17T03:09:40.149Z,17.63
2018-09-17T03:12:08.087Z,19.40
2018-09-17T03:14:36.026Z,19.50
2018-09-17T03:17:11.294Z,20.87
2018-09-17T03:19:39.744Z,20.40
2018-09-17T03:22:07.621Z,18.60
2018-09-17T03:24:35.561Z,18.10
2018-09-17T03:27:03.493Z,19.40
2018-09-17T03:29:31.424Z,19.33
2018-09-17T03:31:59.296Z,20.73
2018-09-17T03:34:27.365Z,18.90
2018-09-17T03:36:55.234Z,26.37
2018-09-17T03:39:23.129Z,23.43
2018-09-17T03:41:52.057Z,23.57
2018-09-17T03:44:20.012Z,21.77
2018-09-17T03:46:48.089Z,24.07
2018-09-17T03:49:17.845Z,20.40
2018-09-17T03:51:45.702Z,21.80
2018-09-17T03:54:13.602Z,21.13
2018-09-17T03:56:41.416Z,27.10
2018-09-17T03:59:09.325Z,21.93
2018-09-17T04:01:37.205Z,23.20
2018-09-17T04:04:05.104Z,27.87
2018-09-17T04:06:32.960Z,31.37
2018-09-17T04:09:00.898Z,28.73
2018-09-17T04:11:28.865Z,30.63
2018-09-17T04:13:56.675Z,31.87
2018-09-17T04:16:24.612Z,28.43
2018-09-17T04:18:52.533Z,28.00
2018-09-17T04:21:20.491Z,26.43
2018-09-17T04:23:48.328Z,25.23
2018-09-17T04:26:17.377Z,27.23
2018-09-17T04:28:45.281Z,25.73
2018-09-17T04:31:13.207Z,24.40
2018-09-17T04:33:42.189Z,24.50
2018-09-17T04:36:10.878Z,24.40
2018-09-17T04:38:38.782Z,29.93
2018-09-17T04:41:06.592Z,23.80
2018-09-17T04:43:34.435Z,27.23
2018-09-17T04:46:02.348Z,25.30
2018-09-17T04:48:30.558Z,29.40
2018-09-17T04:50:58.416Z,24.43
2018-09-17T04:53:26.264Z,24.80
2018-09-17T04:55:54.134Z,25.90
2018-09-17T04:58:22.012Z,25.80
2018-09-17T05:00:49.989Z,24.47
2018-09-17T05:03:17.903Z,21.40
2018-09-17T05:05:45.830Z,21.07
2018-09-17T05:08:13.726Z,31.97
2018-09-17T05:10:42.664Z,24.30
2018-09-17T05:13:10.663Z,23.03
2018-09-17T05:15:38.607Z,23.47
2018-09-17T05:18:06.561Z,23.37
2018-09-17T05:20:34.569Z,23.87
2018-09-17T05:23:02.425Z,24.60
2018-09-17T05:25:31.322Z,23.80
2018-09-17T05:27:59.197Z,27.70
2018-09-17T05:30:27.080Z,24.00
2018-09-17T05:32:55.047Z,22.13
2018-09-17T05:35:22.986Z,23.33
2018-09-17T05:37:50.836Z,21.43
2018-09-17T05:40:18.736Z,24.47
2018-09-17T05:42:46.677Z,25.73
2018-09-17T05:45:14.550Z,20.90
2018-09-17T05:47:43.449Z,21.67
2018-09-17T05:50:11.310Z,26.10
2018-09-17T05:52:39.148Z,28.80
2018-09-17T05:55:07.111Z,22.03
2018-09-17T05:57:35.006Z,24.20
2018-09-17T06:00:02.887Z,31.47
2018-09-17T06:02:30.814Z,22.07
2018-09-17T06:04:58.664Z,20.37
2018-09-17T06:07:26.522Z,21.73
2018-09-17T06:09:54.515Z,23.03
2018-09-17T06:12:22.497Z,18.60
2018-09-17T06:14:50.422Z,19.43
2018-09-17T06:17:18.380Z,21.47
2018-09-17T06:19:46.240Z,17.40
2018-09-17T06:22:14.222Z,21.33
2018-09-17T06:24:42.161Z,20.53
2018-09-17T06:27:10.012Z,18.00
2018-09-17T06:29:37.943Z,18.47
2018-09-17T06:32:05.873Z,21.13
2018-09-17T06:34:33.750Z,20.13
2018-09-17T06:37:02.625Z,17.07
2018-09-17T06:39:30.532Z,17.20
2018-09-17T06:41:58.480Z,20.03
2018-09-17T06:44:26.417Z,19.87
2018-09-17T06:46:54.378Z,23.80
2018-09-17T06:49:22.261Z,17.03
2018-09-17T06:51:50.068Z,21.33
2018-09-17T06:54:17.980Z,16.13
2018-09-17T06:56:45.845Z,20.53
2018-09-17T06:59:13.754Z,17.83
2018-09-17T07:01:41.727Z,17.13
2018-09-17T07:04:09.682Z,17.87
2018-09-17T07:06:37.612Z,18.23
2018-09-17T07:09:07.095Z,21.00
2018-09-17T07:11:35.013Z,17.87
2018-09-17T07:14:02.946Z,16.23
2018-09-17T07:16:30.857Z,18.03
2018-09-17T07:18:58.685Z,23.63
2018-09-17T07:21:26.569Z,27.03
2018-09-17T07:23:54.487Z,20.40
2018-09-17T07:26:22.368Z,21.20
2018-09-17T07:28:50.284Z,20.63
2018-09-17T07:31:18.133Z,23.03
2018-09-17T07:33:46.017Z,16.50
2018-09-17T07:36:13.969Z,19.67
2018-09-17T07:38:41.859Z,17.75
2018-09-17T07:41:09.710Z,22.30
2018-09-17T07:43:37.627Z,16.47
2018-09-17T07:46:05.525Z,22.97
2018-09-17T07:48:33.505Z,21.10
2018-09-17T07:51:01.407Z,23.73
2018-09-17T07:53:29.357Z,17.23
2018-09-17T07:55:57.241Z,18.30
2018-09-17T07:58:26.126Z,16.40
2018-09-17T08:00:54.013Z,16.10
2018-09-17T08:03:21.953Z,24.20
2018-09-17T08:05:49.833Z,14.97
2018-09-17T08:08:17.669Z,13.70
2018-09-17T08:10:45.544Z,10.50
2018-09-17T08:13:13.396Z,9.77
2018-09-17T08:15:41.281Z,11.37
2018-09-17T08:18:09.161Z,14.87
2018-09-17T08:20:37.130Z,11.53
2018-09-17T08:23:04.951Z,10.10
2018-09-17T08:25:32.854Z,8.87
2018-09-17T08:28:00.733Z,7.60
2018-09-17T08:30:28.561Z,14.10
2018-09-17T08:32:57.451Z,10.33
2018-09-17T08:35:25.372Z,13.40
2018-09-17T08:37:53.310Z,7.43
2018-09-17T08:40:21.164Z,10.03
2018-09-17T08:42:49.094Z,10.60
2018-09-17T08:45:18.050Z,6.73
2018-09-17T08:47:45.880Z,8.37
2018-09-17T08:50:13.770Z,11.13
2018-09-17T08:52:41.673Z,6.67
2018-09-17T08:55:10.531Z,7.37
2018-09-17T08:57:40.921Z,7.23
2018-09-17T09:00:14.306Z,6.67
2018-09-17T09:02:43.883Z,15.50
2018-09-17T09:05:17.258Z,8.67
2018-09-17T09:07:51.081Z,8.80
2018-09-17T09:10:23.889Z,14.53
2018-09-17T09:12:57.216Z,5.80
2018-09-17T09:15:30.648Z,9.53
2018-09-17T09:17:58.489Z,6.67
2018-09-17T09:20:26.552Z,8.53
2018-09-17T09:22:54.428Z,5.77
2018-09-17T09:25:22.283Z,8.97
2018-09-17T09:27:50.194Z,8.17
2018-09-17T09:30:18.141Z,7.27
2018-09-17T09:32:45.994Z,6.93
2018-09-17T09:35:13.890Z,7.07
2018-09-17T09:37:41.733Z,4.93
2018-09-17T09:40:09.629Z,4.23
2018-09-17T09:42:38.456Z,6.63
2018-09-17T09:45:06.365Z,6.73
2018-09-17T09:47:34.243Z,17.00
2018-09-17T09:50:02.092Z,9.37
2018-09-17T09:52:29.973Z,9.43
2018-09-17T09:54:57.809Z,5.50
2018-09-17T09:57:25.692Z,5.07
2018-09-17T09:59:53.582Z,10.70
2018-09-17T10:02:26.875Z,9.00
2018-09-17T10:04:54.858Z,8.33
2018-09-17T10:07:22.789Z,5.30
2018-09-17T10:09:56.255Z,8.37
2018-09-17T10:12:29.583Z,5.83
2018-09-17T10:15:02.882Z,7.03
2018-09-17T10:17:36.213Z,17.00
2018-09-17T10:20:04.149Z,6.53
2018-09-17T10:22:31.987Z,4.17
2018-09-17T10:24:59.860Z,8.53
2018-09-17T10:27:27.802Z,11.50
2018-09-17T10:29:55.761Z,9.53
2018-09-17T10:32:23.639Z,5.97
2018-09-17T10:34:51.529Z,7.60
2018-09-17T10:37:19.469Z,8.60
2018-09-17T10:39:47.305Z,4.40
2018-09-17T10:42:15.113Z,6.90
2018-09-17T10:44:43.077Z,10.03
2018-09-17T10:47:11.006Z,3.20
2018-09-17T10:49:38.868Z,3.30
2018-09-17T10:52:06.721Z,3.47
2018-09-17T10:54:34.539Z,2.70
2018-09-17T10:59:43.233Z,3.50
2018-09-17T11:02:11.083Z,6.13
2018-09-17T11:04:38.986Z,3.20
2018-09-17T11:07:06.933Z,3.53
2018-09-17T11:09:34.752Z,3.70
2018-09-17T11:12:02.685Z,4.73
2018-09-17T11:14:30.517Z,3.53
2018-09-17T11:16:58.429Z,7.80
2018-09-17T11:19:26.334Z,6.43
2018-09-17T11:21:54.227Z,3.40
2018-09-17T11:24:22.110Z,7.27
2018-09-17T11:26:49.994Z,3.90
2018-09-17T11:29:17.929Z,5.60
2018-09-17T11:31:45.821Z,6.13
2018-09-17T11:34:13.745Z,3.93
2018-09-17T11:36:41.620Z,5.53
2018-09-17T11:39:10.598Z,5.60
2018-09-17T11:41:38.750Z,3.27
2018-09-17T11:44:06.688Z,6.43
2018-09-17T11:46:34.537Z,4.43
2018-09-17T11:49:02.385Z,6.13
2018-09-17T11:51:30.224Z,6.67
2018-09-17T11:53:58.167Z,4.70
2018-09-17T11:56:26.029Z,3.40
2018-09-17T11:58:53.865Z,5.57
2018-09-17T12:01:27.323Z,4.33
2018-09-17T12:04:00.674Z,2.90
2018-09-17T12:06:34.009Z,6.80
2018-09-17T12:09:01.905Z,4.57
2018-09-17T12:11:29.866Z,4.33
2018-09-17T12:13:57.726Z,4.30
2018-09-17T13:37:19.588Z,5.30
2018-09-17T13:39:47.488Z,6.33
2018-09-17T13:44:42.539Z,5.80
2018-09-17T13:52:04.850Z,3.13
2018-09-17T13:54:32.754Z,2.80
2018-09-17T17:03:37.045Z,10.00
2018-09-17T17:06:05.005Z,7.90
2018-09-17T17:08:32.917Z,13.40
2018-09-17T17:11:00.924Z,7.43
2018-09-17T17:13:28.839Z,8.20
2018-09-17T17:15:56.793Z,4.83
2018-09-17T17:18:24.602Z,8.37
2018-09-17T17:20:52.461Z,8.60
2018-09-17T17:23:20.389Z,11.00
2018-09-17T17:25:48.341Z,13.03
2018-09-17T17:28:16.493Z,12.00
2018-09-17T17:30:45.234Z,19.23
2018-09-17T17:33:13.175Z,12.07
2018-09-17T17:35:41.273Z,10.50
2018-09-17T17:38:09.108Z,14.43
2018-09-17T17:40:37.127Z,12.87
2018-09-17T17:43:04.862Z,14.23
2018-09-17T17:45:34.021Z,11.33
2018-09-17T17:48:01.889Z,9.23
2018-09-17T17:50:29.814Z,14.07
2018-09-17T17:52:57.721Z,12.23
2018-09-17T17:55:25.650Z,17.13
2018-09-17T17:57:53.652Z,14.53
2018-09-17T18:49:25.800Z,25.50
2018-09-17T18:51:54.648Z,20.57
2018-09-17T18:54:22.614Z,24.30
2018-09-17T18:56:50.511Z,20.80
2018-09-17T18:59:18.488Z,22.00
2018-09-17T19:01:46.384Z,25.23
2018-09-17T19:04:14.281Z,24.33
2018-09-17T19:06:42.224Z,21.97
2018-09-17T19:09:10.143Z,22.50
2018-09-17T19:11:38.155Z,22.80
2018-09-17T19:14:11.579Z,26.00
2018-09-17T19:16:45.011Z,31.83
2018-09-17T19:19:12.986Z,33.27
2018-09-17T19:21:46.574Z,37.27
2018-09-17T19:24:14.529Z,28.40
2018-09-17T19:26:42.446Z,26.63
2018-09-17T19:29:18.509Z,35.93
2018-09-17T19:31:46.601Z,27.23
2018-09-17T19:34:14.489Z,28.53
2018-09-17T19:36:42.679Z,29.07
2018-09-17T19:39:16.214Z,29.03
2018-09-17T19:41:44.427Z,27.70
2018-09-17T19:44:12.759Z,30.33
2018-09-17T19:46:40.590Z,29.67
2018-09-17T19:49:08.535Z,25.57
2018-09-17T19:51:41.884Z,26.73
2018-09-17T19:54:09.975Z,21.37
2018-09-17T19:56:37.962Z,25.77
2018-09-17T19:59:11.467Z,27.33
2018-09-17T20:01:39.590Z,22.90
2018-09-17T20:07:48.026Z,19.70
2018-09-17T20:10:16.156Z,19.83
2018-09-17T20:12:44.219Z,21.00
2018-09-17T20:15:12.170Z,19.60
2018-09-17T20:17:40.252Z,20.00
2018-09-17T20:20:08.461Z,20.80
2018-09-17T20:22:36.325Z,27.63
2018-09-17T20:25:04.217Z,22.53
2018-09-17T20:27:32.160Z,21.50
2018-09-17T20:30:00.180Z,20.97
2018-09-17T20:32:28.184Z,21.37
2018-09-17T20:34:56.402Z,20.23
2018-09-17T20:37:24.321Z,15.23
2018-09-17T20:39:52.327Z,22.93
2018-09-17T20:42:20.202Z,20.70
2018-09-17T20:44:48.224Z,18.97
2018-09-17T20:47:16.153Z,27.93
2018-09-17T20:49:44.177Z,18.73
2018-09-17T20:52:13.068Z,20.20
2018-09-17T20:54:40.982Z,22.43
2018-09-17T20:57:08.996Z,21.50
2018-09-17T20:59:36.914Z,19.20
2018-09-17T21:02:04.962Z,24.10
2018-09-17T21:06:41.043Z,22.53
2018-09-17T21:09:10.148Z,20.10
2018-09-17T21:11:38.054Z,16.43
2018-09-17T21:14:06.564Z,20.50
2018-09-17T21:16:34.480Z,15.00
2018-09-17T21:19:02.406Z,13.70
2018-09-17T21:21:30.357Z,16.97
2018-09-17T21:23:58.285Z,17.77
2018-09-17T21:26:26.219Z,16.80
2018-09-17T21:28:54.147Z,24.10
2018-09-17T21:31:22.145Z,21.67
2018-09-17T21:33:50.378Z,15.20
2018-09-17T21:36:18.329Z,17.10
2018-09-17T21:38:46.298Z,15.80
2018-09-17T21:41:15.178Z,21.37
2018-09-17T21:43:43.094Z,17.50
2018-09-17T21:46:11.343Z,21.00
2018-09-17T21:48:39.286Z,19.97
2018-09-17T21:51:07.192Z,17.53
2018-09-17T21:53:35.169Z,15.60
2018-09-17T21:56:03.053Z,21.40
2018-09-17T21:58:30.969Z,18.23
2018-09-17T22:01:00.622Z,14.63
2018-09-17T22:03:29.337Z,19.90
2018-09-17T22:05:57.644Z,20.63
2018-09-17T22:08:25.627Z,15.03
2018-09-17T22:10:53.552Z,17.93
2018-09-17T22:13:21.452Z,21.73
2018-09-17T22:15:49.462Z,17.93
2018-09-17T22:18:17.419Z,21.40
2018-09-17T22:20:45.342Z,16.70
2018-09-17T22:23:13.260Z,16.50
2018-09-17T22:25:41.115Z,20.67
2018-09-17T22:28:09.106Z,19.90
2018-09-17T22:30:36.981Z,15.90
2018-09-17T22:33:04.913Z,25.63
2018-09-17T22:35:32.815Z,17.07
2018-09-17T22:38:00.728Z,20.13
2018-09-17T22:40:28.649Z,19.47
2018-09-17T22:42:56.537Z,16.33
2018-09-17T22:45:24.666Z,20.17
2018-09-17T22:47:52.616Z,18.07
2018-09-17T22:50:20.595Z,14.60
2018-09-17T22:52:48.498Z,19.00
2018-09-17T22:55:16.423Z,20.73
2018-09-17T22:57:44.340Z,15.70
2018-09-17T23:00:12.440Z,20.70
2018-09-17T23:02:40.300Z,22.10
2018-09-17T23:05:08.273Z,18.50
2018-09-17T23:07:36.118Z,24.23
2018-09-17T23:10:04.450Z,18.63
2018-09-17T23:12:32.410Z,16.60
2018-09-17T23:15:00.245Z,20.00
2018-09-17T23:17:28.107Z,18.33
2018-09-17T23:19:56.078Z,17.10
2018-09-17T23:22:23.973Z,20.30
2018-09-17T23:24:51.992Z,16.10
2018-09-17T23:27:19.832Z,17.80
2018-09-17T23:29:47.778Z,21.77
2018-09-17T23:32:15.679Z,20.10
2018-09-17T23:34:43.640Z,14.73
2018-09-17T23:37:11.581Z,17.00
2018-09-17T23:39:39.480Z,24.00
2018-09-17T23:42:07.364Z,17.10
2018-09-17T23:44:35.266Z,21.00
2018-09-17T23:47:03.202Z,16.93
2018-09-17T23:49:31.055Z,22.40
2018-09-17T23:51:58.948Z,15.60
2018-09-17T23:54:26.863Z,22.63
2018-09-17T23:56:54.776Z,18.63
2018-09-17T23:59:22.673Z,22.40
